Currently 75°F in Anza, California, USA
75°F
75°F / 42°F
5 mph SE
0.00"
Tuesday, April 23, 2019 11:56 AM PDT

Anza, California Weather Summary
Last 36 Hours

Temperature Winds Hourly Humidity Dewpoint
Time Report Norm Report Norm Max Gusts Precip. Rpt. Norm Rpt. Norm Pressure
1Tue 11:56 AM  75.3°F  69°F  5 mph SE  11 mph  11 mph  0.00"  30%  36%  41°F  40°F  N/A
2Tue 11:55 AM  75.3°F  69°F  6 mph E  10 mph  14 mph  ----  30%  36%  41°F  40°F  N/A
Tue 11:00 AM  73.3°F  67°F  7 mph SE  10 mph  19 mph  0.00"  30%  38%  39°F  40°F  N/A
Tue 10:00 AM  71.0°F  65°F  7 mph S  10 mph  18 mph  0.00"  37%  41%  42°F  40°F  N/A
Tue 09:00 AM  68.1°F  62°F  calm  9 mph  6 mph  0.00"  47%  46%  46°F  40°F  N/A
Tue 08:00 AM  59.6°F  57°F  calm  7 mph  6 mph  0.00"  75%  56%  51°F  41°F  N/A
Tue 07:00 AM  45.8°F  49°F  calm  6 mph  6 mph  0.00"  96%  68%  45°F  39°F  N/A
3Tue 06:30 AM  42.3°F  47°F  calm  5 mph  6 mph  ----  95%  70%  41°F  37°F  N/A
Tue 06:00 AM  42.8°F  46°F  calm  5 mph  4 mph  0.00"  94%  71%  41°F  37°F  N/A
Tue 05:00 AM  47.4°F  46°F  calm  5 mph  none  0.00"  88%  71%  44°F  37°F  N/A
Tue 04:00 AM  48.8°F  47°F  calm  5 mph  none  0.00"  86%  72%  45°F  38°F  N/A
Tue 03:00 AM  50.1°F  48°F  calm  5 mph  none  0.00"  86%  72%  46°F  39°F  N/A
Tue 02:00 AM  48.5°F  48°F  calm  5 mph  6 mph  0.00"  91%  72%  46°F  39°F  N/A
Tue 01:00 AM  50.2°F  49°F  calm  6 mph  none  0.00"  86%  72%  46°F  40°F  N/A
Tue 12:00 AM  51.0°F  49°F  calm  6 mph  6 mph  0.00"  85%  73%  46°F  40°F  N/A
Mon 11:00 PM  46.3°F  50°F  3 mph NE  6 mph  6 mph  0.00"  87%  71%  42°F  41°F  N/A
Mon 10:00 PM  47.0°F  51°F  2 mph W  6 mph  5 mph  0.00"  87%  69%  43°F  41°F  N/A
Mon 09:00 PM  52.8°F  53°F  calm  7 mph  8 mph  0.00"  82%  66%  47°F  42°F  N/A
Mon 08:00 PM  55.4°F  56°F  1 mph E  7 mph  13 mph  0.00"  75%  61%  47°F  42°F  N/A
Mon 07:00 PM  60.9°F  61°F  calm  9 mph  9 mph  0.00"  65%  53%  48°F  43°F  N/A
Mon 06:00 PM  65.2°F  66°F  5 mph NW  12 mph  14 mph  0.00"  50%  46%  46°F  43°F  N/A
Mon 05:00 PM  64.8°F  68°F  calm  12 mph  14 mph  0.00"  52%  40%  46°F  42°F  N/A
Mon 04:00 PM  61.5°F  70°F  1 mph SW  11 mph  22 mph  0.01"  58%  36%  46°F  41°F  N/A
Mon 03:00 PM  63.2°F  71°F  9 mph E  11 mph  19 mph  0.01"  51%  34%  44°F  40°F  N/A
Mon 02:00 PM  67.0°F  71°F  10 mph NW  11 mph  20 mph  0.00"  45%  33%  44°F  39°F  N/A
Mon 01:00 PM  66.5°F  70°F  8 mph W  11 mph  15 mph  0.00"  50%  33%  46°F  39°F  N/A
Mon 12:00 PM  68.7°F  69°F  10 mph NW  10 mph  27 mph  0.00"  45%  35%  46°F  38°F  N/A
Mon 11:00 AM  68.6°F  67°F  7 mph SE  10 mph  19 mph  0.00"  34%  37%  38°F  38°F  N/A
Mon 10:00 AM  67.4°F  65°F  7 mph E  10 mph  21 mph  0.00"  37%  40%  39°F  39°F  N/A
Mon 09:00 AM  63.2°F  61°F  13 mph NE  9 mph  117 mph  0.00"  42%  46%  39°F  39°F  N/A
Mon 08:00 AM  60.4°F  56°F  calm  7 mph  17 mph  0.00"  49%  57%  41°F  40°F  N/A
Mon 07:00 AM  46.2°F  48°F  6 mph S  5 mph  19 mph  0.00"  87%  69%  42°F  38°F  N/A
Mon 06:00 AM  43.0°F  46°F  3 mph NW  5 mph  18 mph  0.00"  100%  70%  43°F  36°F  N/A
Mon 05:00 AM  43.6°F  46°F  9 mph NW  5 mph  19 mph  0.00"  99%  71%  43°F  37°F  N/A
Mon 04:00 AM  44.2°F  46°F  8 mph NW  5 mph  18 mph  0.00"  99%  71%  44°F  37°F  N/A
Mon 03:00 AM  45.6°F  47°F  8 mph NW  5 mph  17 mph  0.00"  98%  71%  45°F  38°F  N/A
Mon 02:00 AM  46.8°F  48°F  calm  5 mph  18 mph  0.00"  97%  71%  46°F  38°F  N/A
Mon 01:00 AM  47.5°F  48°F  calm  6 mph  17 mph  0.00"  97%  71%  47°F  39°F  N/A
Mon 12:00 AM  47.9°F  48°F  calm  6 mph  16 mph  0.00"  96%  72%  47°F  39°F  N/A

  1. Current weather data. No green row appears if the current weather data is also the high or low for the current day.
  2. High temperature for the current day.
  3. Low temperature for the current day.

The Anza, California weather pages are a service of WeatherCurrents. The Anza Valley is southwestern Riverside County, east of Temecula and Aguanga, south of Mount San Jacinto and west of Mount Santa Rosa.
Copyright ©2019  WeatherCurrents. All rights reserved. - Submit questions and comments - Privacy Policy

This page automatically refreshes every 10 minutes.